Terminal Aerodrome Forecast
Issued by NWS Quad Cities IA IL

Home | Current Version | Previous Version | Text Only | Print | Product List | Glossary On
Versions: 1 2 3 4 5 6 7 8 9 10 11 12 13 14 15 16
000
FTUS43 KDVN 261730
TAFDBQ
TAF
KDBQ 261730Z 2618/2718 23011KT P6SM FEW040 SCT250
     FM270100 14005KT P6SM BKN150
     FM270400 16005KT P6SM VCTS BKN050CB PROB30 2704/2707 3SM TSRA
      BKN030CB
     FM270700 23004KT 5SM BR VCTS BKN040CB
     FM271200 19008KT 4SM -SHRA BR VCTS BKN025CB=

USA.gov is the U.S. government's official web portal to all federal, state and local government web resources and services.